sensor_id;sensor_type;location;lat;lon;timestamp;P1;durP1;ratioP1;P2;durP2;ratioP2
17253;SDS011;32542;52.832;13.816;2023-09-30T00:00:32;3.05;;;1.33;;
17253;SDS011;32542;52.832;13.816;2023-09-30T00:03:35;1.92;;;1.20;;
17253;SDS011;32542;52.832;13.816;2023-09-30T00:06:38;7.60;;;1.40;;
17253;SDS011;32542;52.832;13.816;2023-09-30T00:09:43;3.58;;;1.52;;
17253;SDS011;32542;52.832;13.816;2023-09-30T00:12:46;2.75;;;1.20;;
17253;SDS011;32542;52.832;13.816;2023-09-30T00:15:48;3.78;;;1.27;;
17253;SDS011;32542;52.832;13.816;2023-09-30T00:18:51;3.28;;;1.20;;
17253;SDS011;32542;52.832;13.816;2023-09-30T00:21:56;3.70;;;1.40;;
17253;SDS011;32542;52.832;13.816;2023-09-30T00:25:00;2.08;;;1.10;;
17253;SDS011;32542;52.832;13.816;2023-09-30T00:28:03;3.30;;;1.17;;
17253;SDS011;32542;52.832;13.816;2023-09-30T00:31:06;3.08;;;1.27;;
17253;SDS011;32542;52.832;13.816;2023-09-30T00:34:11;3.53;;;1.38;;
17253;SDS011;32542;52.832;13.816;2023-09-30T00:37:14;4.18;;;1.30;;
17253;SDS011;32542;52.832;13.816;2023-09-30T00:40:19;6.10;;;1.50;;
17253;SDS011;32542;52.832;13.816;2023-09-30T00:43:22;5.90;;;1.40;;
17253;SDS011;32542;52.832;13.816;2023-09-30T00:46:26;4.82;;;1.30;;
17253;SDS011;32542;52.832;13.816;2023-09-30T00:49:31;4.38;;;1.70;;
17253;SDS011;32542;52.832;13.816;2023-09-30T00:52:35;7.55;;;2.10;;
17253;SDS011;32542;52.832;13.816;2023-09-30T00:55:41;4.10;;;1.30;;
17253;SDS011;32542;52.832;13.816;2023-09-30T00:58:44;5.53;;;1.67;;
17253;SDS011;32542;52.832;13.816;2023-09-30T01:01:48;3.53;;;1.42;;
17253;SDS011;32542;52.832;13.816;2023-09-30T01:04:51;5.55;;;1.60;;
17253;SDS011;32542;52.832;13.816;2023-09-30T01:07:54;6.80;;;1.90;;
17253;SDS011;32542;52.832;13.816;2023-09-30T01:10:58;5.25;;;1.65;;
17253;SDS011;32542;52.832;13.816;2023-09-30T01:14:02;10.38;;;2.55;;
17253;SDS011;32542;52.832;13.816;2023-09-30T01:17:05;4.90;;;1.65;;
17253;SDS011;32542;52.832;13.816;2023-09-30T01:20:10;5.63;;;1.95;;
17253;SDS011;32542;52.832;13.816;2023-09-30T01:23:24;5.22;;;1.83;;
17253;SDS011;32542;52.832;13.816;2023-09-30T01:26:27;6.88;;;1.85;;
17253;SDS011;32542;52.832;13.816;2023-09-30T01:29:32;4.57;;;1.83;;
17253;SDS011;32542;52.832;13.816;2023-09-30T01:32:34;5.90;;;1.85;;
17253;SDS011;32542;52.832;13.816;2023-09-30T01:35:37;5.43;;;1.83;;
17253;SDS011;32542;52.832;13.816;2023-09-30T01:38:41;5.28;;;1.80;;
17253;SDS011;32542;52.832;13.816;2023-09-30T01:41:44;5.28;;;1.50;;
17253;SDS011;32542;52.832;13.816;2023-09-30T01:44:47;5.88;;;1.95;;
17253;SDS011;32542;52.832;13.816;2023-09-30T01:47:50;3.70;;;1.60;;
17253;SDS011;32542;52.832;13.816;2023-09-30T01:50:53;7.60;;;2.25;;
17253;SDS011;32542;52.832;13.816;2023-09-30T01:53:57;6.97;;;2.60;;
17253;SDS011;32542;52.832;13.816;2023-09-30T01:57:00;7.72;;;2.30;;
17253;SDS011;32542;52.832;13.816;2023-09-30T02:00:05;5.70;;;2.10;;
17253;SDS011;32542;52.832;13.816;2023-09-30T02:03:13;8.15;;;2.28;;
17253;SDS011;32542;52.832;13.816;2023-09-30T02:06:16;7.93;;;1.92;;
17253;SDS011;32542;52.832;13.816;2023-09-30T02:09:20;10.70;;;2.10;;
17253;SDS011;32542;52.832;13.816;2023-09-30T02:12:23;6.03;;;2.22;;
17253;SDS011;32542;52.832;13.816;2023-09-30T02:15:26;6.15;;;2.00;;
17253;SDS011;32542;52.832;13.816;2023-09-30T02:18:29;11.50;;;2.70;;
17253;SDS011;32542;52.832;13.816;2023-09-30T02:21:33;7.95;;;2.60;;
17253;SDS011;32542;52.832;13.816;2023-09-30T02:24:38;6.03;;;2.22;;
17253;SDS011;32542;52.832;13.816;2023-09-30T02:27:41;7.40;;;2.58;;
17253;SDS011;32542;52.832;13.816;2023-09-30T02:30:44;7.22;;;2.33;;
17253;SDS011;32542;52.832;13.816;2023-09-30T02:33:47;7.45;;;2.40;;
17253;SDS011;32542;52.832;13.816;2023-09-30T02:36:50;9.07;;;1.98;;
17253;SDS011;32542;52.832;13.816;2023-09-30T02:39:58;7.60;;;2.45;;
17253;SDS011;32542;52.832;13.816;2023-09-30T02:43:01;8.10;;;2.45;;
17253;SDS011;32542;52.832;13.816;2023-09-30T02:46:03;10.27;;;2.53;;
17253;SDS011;32542;52.832;13.816;2023-09-30T02:49:06;7.95;;;2.67;;
17253;SDS011;32542;52.832;13.816;2023-09-30T02:52:09;6.07;;;1.95;;
17253;SDS011;32542;52.832;13.816;2023-09-30T02:55:13;6.35;;;2.03;;
17253;SDS011;32542;52.832;13.816;2023-09-30T02:58:18;6.60;;;1.70;;
17253;SDS011;32542;52.832;13.816;2023-09-30T03:01:21;7.05;;;2.20;;
17253;SDS011;32542;52.832;13.816;2023-09-30T03:04:24;8.00;;;2.40;;
17253;SDS011;32542;52.832;13.816;2023-09-30T03:07:30;7.38;;;2.40;;
17253;SDS011;32542;52.832;13.816;2023-09-30T03:10:36;7.88;;;2.30;;
17253;SDS011;32542;52.832;13.816;2023-09-30T03:13:42;8.50;;;2.42;;
17253;SDS011;32542;52.832;13.816;2023-09-30T03:16:45;6.50;;;2.13;;
17253;SDS011;32542;52.832;13.816;2023-09-30T03:19:48;9.60;;;2.72;;
17253;SDS011;32542;52.832;13.816;2023-09-30T03:22:51;4.60;;;2.03;;
17253;SDS011;32542;52.832;13.816;2023-09-30T03:25:56;9.88;;;2.63;;
17253;SDS011;32542;52.832;13.816;2023-09-30T03:28:59;5.85;;;2.00;;
17253;SDS011;32542;52.832;13.816;2023-09-30T03:32:02;5.60;;;2.15;;
17253;SDS011;32542;52.832;13.816;2023-09-30T03:35:06;4.75;;;2.00;;
17253;SDS011;32542;52.832;13.816;2023-09-30T03:38:12;9.13;;;2.38;;
17253;SDS011;32542;52.832;13.816;2023-09-30T03:41:16;7.00;;;2.38;;
17253;SDS011;32542;52.832;13.816;2023-09-30T03:44:20;6.93;;;2.60;;
17253;SDS011;32542;52.832;13.816;2023-09-30T03:47:24;4.80;;;1.92;;
17253;SDS011;32542;52.832;13.816;2023-09-30T03:50:27;5.75;;;2.10;;
17253;SDS011;32542;52.832;13.816;2023-09-30T03:53:31;7.32;;;2.45;;
17253;SDS011;32542;52.832;13.816;2023-09-30T03:56:35;5.75;;;2.30;;
17253;SDS011;32542;52.832;13.816;2023-09-30T03:59:39;6.63;;;2.13;;
17253;SDS011;32542;52.832;13.816;2023-09-30T04:02:42;8.65;;;2.58;;
17253;SDS011;32542;52.832;13.816;2023-09-30T04:05:45;8.02;;;2.60;;
17253;SDS011;32542;52.832;13.816;2023-09-30T04:08:51;8.45;;;2.65;;
17253;SDS011;32542;52.832;13.816;2023-09-30T04:11:56;6.00;;;2.33;;
17253;SDS011;32542;52.832;13.816;2023-09-30T04:14:59;7.68;;;2.08;;
17253;SDS011;32542;52.832;13.816;2023-09-30T04:18:02;8.43;;;2.88;;
17253;SDS011;32542;52.832;13.816;2023-09-30T04:21:06;5.90;;;2.20;;
17253;SDS011;32542;52.832;13.816;2023-09-30T04:24:09;9.50;;;2.75;;
17253;SDS011;32542;52.832;13.816;2023-09-30T04:27:13;9.63;;;2.50;;
17253;SDS011;32542;52.832;13.816;2023-09-30T04:30:17;7.47;;;2.60;;
17253;SDS011;32542;52.832;13.816;2023-09-30T04:33:20;8.15;;;2.63;;
17253;SDS011;32542;52.832;13.816;2023-09-30T04:36:26;11.73;;;2.58;;
17253;SDS011;32542;52.832;13.816;2023-09-30T04:39:30;8.77;;;2.60;;
17253;SDS011;32542;52.832;13.816;2023-09-30T04:42:38;8.48;;;2.17;;
17253;SDS011;32542;52.832;13.816;2023-09-30T04:45:40;6.85;;;2.35;;
17253;SDS011;32542;52.832;13.816;2023-09-30T04:48:43;9.40;;;2.85;;
17253;SDS011;32542;52.832;13.816;2023-09-30T04:51:50;8.43;;;2.70;;
17253;SDS011;32542;52.832;13.816;2023-09-30T04:54:53;9.68;;;2.45;;
17253;SDS011;32542;52.832;13.816;2023-09-30T04:57:57;7.70;;;2.33;;
17253;SDS011;32542;52.832;13.816;2023-09-30T05:01:00;7.20;;;2.47;;
17253;SDS011;32542;52.832;13.816;2023-09-30T05:04:03;8.63;;;2.30;;
17253;SDS011;32542;52.832;13.816;2023-09-30T05:07:06;7.68;;;2.28;;
17253;SDS011;32542;52.832;13.816;2023-09-30T05:10:09;8.75;;;2.83;;
17253;SDS011;32542;52.832;13.816;2023-09-30T05:13:18;8.27;;;2.42;;
17253;SDS011;32542;52.832;13.816;2023-09-30T05:16:21;8.30;;;2.30;;
17253;SDS011;32542;52.832;13.816;2023-09-30T05:19:24;8.20;;;2.47;;
17253;SDS011;32542;52.832;13.816;2023-09-30T05:22:27;6.90;;;2.28;;
17253;SDS011;32542;52.832;13.816;2023-09-30T05:25:31;8.45;;;2.60;;
17253;SDS011;32542;52.832;13.816;2023-09-30T05:28:35;8.80;;;2.55;;
17253;SDS011;32542;52.832;13.816;2023-09-30T05:31:38;11.50;;;2.53;;
17253;SDS011;32542;52.832;13.816;2023-09-30T05:34:41;8.63;;;2.80;;
17253;SDS011;32542;52.832;13.816;2023-09-30T05:37:45;9.27;;;2.50;;
17253;SDS011;32542;52.832;13.816;2023-09-30T05:40:48;7.18;;;2.90;;
17253;SDS011;32542;52.832;13.816;2023-09-30T05:43:52;8.25;;;2.58;;
17253;SDS011;32542;52.832;13.816;2023-09-30T05:46:56;6.15;;;2.42;;
17253;SDS011;32542;52.832;13.816;2023-09-30T05:50:01;8.13;;;2.67;;
17253;SDS011;32542;52.832;13.816;2023-09-30T05:53:08;6.63;;;2.30;;
17253;SDS011;32542;52.832;13.816;2023-09-30T05:56:11;7.75;;;2.85;;
17253;SDS011;32542;52.832;13.816;2023-09-30T05:59:17;6.22;;;2.60;;
17253;SDS011;32542;52.832;13.816;2023-09-30T06:02:20;7.93;;;2.38;;
17253;SDS011;32542;52.832;13.816;2023-09-30T06:05:23;6.22;;;2.25;;
17253;SDS011;32542;52.832;13.816;2023-09-30T06:08:27;9.10;;;2.60;;
17253;SDS011;32542;52.832;13.816;2023-09-30T06:11:30;11.27;;;2.55;;
17253;SDS011;32542;52.832;13.816;2023-09-30T06:14:34;10.07;;;2.88;;
17253;SDS011;32542;52.832;13.816;2023-09-30T06:17:37;10.95;;;2.97;;
17253;SDS011;32542;52.832;13.816;2023-09-30T06:20:40;7.97;;;2.88;;
17253;SDS011;32542;52.832;13.816;2023-09-30T06:23:43;9.40;;;2.75;;
17253;SDS011;32542;52.832;13.816;2023-09-30T06:26:46;9.45;;;2.70;;
17253;SDS011;32542;52.832;13.816;2023-09-30T06:29:51;8.70;;;3.42;;
17253;SDS011;32542;52.832;13.816;2023-09-30T06:32:54;10.25;;;2.90;;
17253;SDS011;32542;52.832;13.816;2023-09-30T06:35:57;12.15;;;3.78;;
17253;SDS011;32542;52.832;13.816;2023-09-30T06:39:03;7.57;;;2.85;;
17253;SDS011;32542;52.832;13.816;2023-09-30T06:42:07;9.23;;;3.17;;
17253;SDS011;32542;52.832;13.816;2023-09-30T06:45:11;6.85;;;2.80;;
17253;SDS011;32542;52.832;13.816;2023-09-30T06:48:14;8.00;;;2.83;;
17253;SDS011;32542;52.832;13.816;2023-09-30T06:51:17;6.80;;;2.60;;
17253;SDS011;32542;52.832;13.816;2023-09-30T06:54:20;10.30;;;3.25;;
17253;SDS011;32542;52.832;13.816;2023-09-30T06:57:23;11.95;;;3.10;;
17253;SDS011;32542;52.832;13.816;2023-09-30T07:00:28;10.20;;;3.05;;
17253;SDS011;32542;52.832;13.816;2023-09-30T07:03:31;9.75;;;2.85;;
17253;SDS011;32542;52.832;13.816;2023-09-30T07:06:35;9.77;;;3.08;;
17253;SDS011;32542;52.832;13.816;2023-09-30T07:09:37;9.45;;;2.85;;
17253;SDS011;32542;52.832;13.816;2023-09-30T07:12:40;11.52;;;3.15;;
17253;SDS011;32542;52.832;13.816;2023-09-30T07:15:45;7.43;;;2.97;;
17253;SDS011;32542;52.832;13.816;2023-09-30T07:18:48;9.77;;;3.03;;
17253;SDS011;32542;52.832;13.816;2023-09-30T07:21:51;10.15;;;3.13;;
17253;SDS011;32542;52.832;13.816;2023-09-30T07:25:05;9.73;;;3.20;;
17253;SDS011;32542;52.832;13.816;2023-09-30T07:28:08;11.80;;;3.33;;
17253;SDS011;32542;52.832;13.816;2023-09-30T07:31:14;11.05;;;3.10;;
17253;SDS011;32542;52.832;13.816;2023-09-30T07:34:17;11.00;;;3.13;;
17253;SDS011;32542;52.832;13.816;2023-09-30T07:37:20;10.55;;;2.60;;
17253;SDS011;32542;52.832;13.816;2023-09-30T07:40:23;12.00;;;2.97;;
17253;SDS011;32542;52.832;13.816;2023-09-30T07:43:27;12.85;;;2.80;;
17253;SDS011;32542;52.832;13.816;2023-09-30T07:46:32;10.43;;;3.03;;
17253;SDS011;32542;52.832;13.816;2023-09-30T07:49:34;9.25;;;2.92;;
17253;SDS011;32542;52.832;13.816;2023-09-30T07:52:37;9.20;;;2.60;;
17253;SDS011;32542;52.832;13.816;2023-09-30T07:55:41;7.97;;;2.83;;
17253;SDS011;32542;52.832;13.816;2023-09-30T07:58:44;13.27;;;3.03;;
17253;SDS011;32542;52.832;13.816;2023-09-30T08:01:48;10.75;;;2.80;;
17253;SDS011;32542;52.832;13.816;2023-09-30T08:04:51;12.23;;;3.50;;
17253;SDS011;32542;52.832;13.816;2023-09-30T08:07:54;11.38;;;3.20;;
17253;SDS011;32542;52.832;13.816;2023-09-30T08:10:57;10.02;;;2.80;;
17253;SDS011;32542;52.832;13.816;2023-09-30T08:14:00;8.02;;;3.03;;
17253;SDS011;32542;52.832;13.816;2023-09-30T08:17:09;11.93;;;2.72;;
17253;SDS011;32542;52.832;13.816;2023-09-30T08:20:12;8.82;;;3.08;;
17253;SDS011;32542;52.832;13.816;2023-09-30T08:23:15;11.48;;;3.03;;
17253;SDS011;32542;52.832;13.816;2023-09-30T08:26:18;7.97;;;2.60;;
17253;SDS011;32542;52.832;13.816;2023-09-30T08:29:21;9.88;;;2.97;;
17253;SDS011;32542;52.832;13.816;2023-09-30T08:32:25;12.35;;;3.13;;
17253;SDS011;32542;52.832;13.816;2023-09-30T08:35:28;9.65;;;3.33;;
17253;SDS011;32542;52.832;13.816;2023-09-30T08:38:31;11.18;;;3.00;;
17253;SDS011;32542;52.832;13.816;2023-09-30T08:41:34;8.55;;;3.33;;
17253;SDS011;32542;52.832;13.816;2023-09-30T08:44:37;10.02;;;2.78;;
17253;SDS011;32542;52.832;13.816;2023-09-30T08:47:42;11.57;;;3.72;;
17253;SDS011;32542;52.832;13.816;2023-09-30T08:50:45;9.30;;;3.00;;
17253;SDS011;32542;52.832;13.816;2023-09-30T08:53:49;11.73;;;3.03;;
17253;SDS011;32542;52.832;13.816;2023-09-30T08:56:54;9.65;;;2.90;;
17253;SDS011;32542;52.832;13.816;2023-09-30T08:59:58;10.55;;;2.97;;
17253;SDS011;32542;52.832;13.816;2023-09-30T09:03:03;12.43;;;3.10;;
17253;SDS011;32542;52.832;13.816;2023-09-30T09:06:07;10.88;;;3.15;;
17253;SDS011;32542;52.832;13.816;2023-09-30T09:09:13;9.25;;;2.60;;
17253;SDS011;32542;52.832;13.816;2023-09-30T09:12:18;10.50;;;2.72;;
17253;SDS011;32542;52.832;13.816;2023-09-30T09:15:23;7.55;;;2.53;;
17253;SDS011;32542;52.832;13.816;2023-09-30T09:18:32;12.93;;;2.85;;
17253;SDS011;32542;52.832;13.816;2023-09-30T09:21:35;8.45;;;2.20;;
17253;SDS011;32542;52.832;13.816;2023-09-30T09:24:38;9.50;;;3.08;;
17253;SDS011;32542;52.832;13.816;2023-09-30T09:27:41;8.98;;;2.45;;
17253;SDS011;32542;52.832;13.816;2023-09-30T09:30:44;9.95;;;2.53;;
17253;SDS011;32542;52.832;13.816;2023-09-30T09:33:48;11.25;;;3.28;;
17253;SDS011;32542;52.832;13.816;2023-09-30T09:36:52;9.30;;;2.97;;
17253;SDS011;32542;52.832;13.816;2023-09-30T09:39:55;10.32;;;2.92;;
17253;SDS011;32542;52.832;13.816;2023-09-30T09:42:59;6.88;;;2.50;;
17253;SDS011;32542;52.832;13.816;2023-09-30T09:46:07;11.38;;;3.00;;
17253;SDS011;32542;52.832;13.816;2023-09-30T09:49:11;9.23;;;2.38;;
17253;SDS011;32542;52.832;13.816;2023-09-30T09:52:15;12.60;;;2.50;;
17253;SDS011;32542;52.832;13.816;2023-09-30T09:55:21;9.52;;;3.15;;
17253;SDS011;32542;52.832;13.816;2023-09-30T09:58:25;9.43;;;2.30;;
17253;SDS011;32542;52.832;13.816;2023-09-30T10:01:32;11.00;;;2.40;;
17253;SDS011;32542;52.832;13.816;2023-09-30T10:04:37;11.32;;;2.08;;
17253;SDS011;32542;52.832;13.816;2023-09-30T10:07:42;10.07;;;2.47;;
17253;SDS011;32542;52.832;13.816;2023-09-30T10:10:48;13.82;;;2.72;;
17253;SDS011;32542;52.832;13.816;2023-09-30T10:13:52;7.45;;;2.25;;
17253;SDS011;32542;52.832;13.816;2023-09-30T10:16:56;7.15;;;2.50;;
17253;SDS011;32542;52.832;13.816;2023-09-30T10:20:10;9.18;;;2.67;;
17253;SDS011;32542;52.832;13.816;2023-09-30T10:26:34;12.38;;;2.50;;
17253;SDS011;32542;52.832;13.816;2023-09-30T10:29:40;10.63;;;2.40;;
17253;SDS011;32542;52.832;13.816;2023-09-30T10:36:26;9.00;;;2.55;;
17253;SDS011;32542;52.832;13.816;2023-09-30T10:43:01;9.43;;;2.78;;
17253;SDS011;32542;52.832;13.816;2023-09-30T10:46:05;9.15;;;2.60;;
17253;SDS011;32542;52.832;13.816;2023-09-30T10:49:35;9.32;;;2.60;;
17253;SDS011;32542;52.832;13.816;2023-09-30T10:52:41;8.55;;;2.28;;
17253;SDS011;32542;52.832;13.816;2023-09-30T10:55:44;8.52;;;2.17;;
17253;SDS011;32542;52.832;13.816;2023-09-30T10:58:48;12.18;;;2.65;;
17253;SDS011;32542;52.832;13.816;2023-09-30T11:01:52;10.93;;;2.65;;
17253;SDS011;32542;52.832;13.816;2023-09-30T11:04:56;11.30;;;2.60;;
17253;SDS011;32542;52.832;13.816;2023-09-30T11:08:01;14.18;;;2.47;;
17253;SDS011;32542;52.832;13.816;2023-09-30T11:11:05;10.90;;;2.40;;
17253;SDS011;32542;52.832;13.816;2023-09-30T11:14:18;9.10;;;2.50;;
17253;SDS011;32542;52.832;13.816;2023-09-30T11:17:22;8.43;;;2.00;;
17253;SDS011;32542;52.832;13.816;2023-09-30T11:20:25;8.02;;;2.13;;
17253;SDS011;32542;52.832;13.816;2023-09-30T11:23:30;9.27;;;2.13;;
17253;SDS011;32542;52.832;13.816;2023-09-30T11:26:33;12.75;;;2.28;;
17253;SDS011;32542;52.832;13.816;2023-09-30T11:29:47;8.65;;;2.45;;
17253;SDS011;32542;52.832;13.816;2023-09-30T11:32:57;9.13;;;2.13;;
17253;SDS011;32542;52.832;13.816;2023-09-30T11:36:02;7.25;;;2.40;;
17253;SDS011;32542;52.832;13.816;2023-09-30T11:39:08;15.60;;;2.40;;
17253;SDS011;32542;52.832;13.816;2023-09-30T11:42:14;11.90;;;2.42;;
17253;SDS011;32542;52.832;13.816;2023-09-30T11:45:18;12.40;;;2.45;;
17253;SDS011;32542;52.832;13.816;2023-09-30T11:48:24;9.32;;;2.13;;
17253;SDS011;32542;52.832;13.816;2023-09-30T11:51:28;8.60;;;2.45;;
17253;SDS011;32542;52.832;13.816;2023-09-30T11:54:34;8.10;;;2.30;;
17253;SDS011;32542;52.832;13.816;2023-09-30T11:57:41;8.65;;;2.63;;
17253;SDS011;32542;52.832;13.816;2023-09-30T12:00:44;5.78;;;1.95;;
17253;SDS011;32542;52.832;13.816;2023-09-30T12:03:47;9.85;;;2.60;;
17253;SDS011;32542;52.832;13.816;2023-09-30T12:06:50;6.60;;;2.45;;
17253;SDS011;32542;52.832;13.816;2023-09-30T12:09:54;10.93;;;2.33;;
17253;SDS011;32542;52.832;13.816;2023-09-30T12:12:57;6.43;;;2.20;;
17253;SDS011;32542;52.832;13.816;2023-09-30T12:16:00;8.43;;;2.17;;
17253;SDS011;32542;52.832;13.816;2023-09-30T12:19:05;10.40;;;2.13;;
17253;SDS011;32542;52.832;13.816;2023-09-30T12:22:08;9.10;;;2.22;;
17253;SDS011;32542;52.832;13.816;2023-09-30T12:25:13;13.35;;;3.00;;
17253;SDS011;32542;52.832;13.816;2023-09-30T12:28:18;8.63;;;2.53;;
17253;SDS011;32542;52.832;13.816;2023-09-30T12:31:21;7.90;;;1.85;;
17253;SDS011;32542;52.832;13.816;2023-09-30T12:34:24;8.30;;;1.83;;
17253;SDS011;32542;52.832;13.816;2023-09-30T12:37:29;5.80;;;1.88;;
17253;SDS011;32542;52.832;13.816;2023-09-30T12:40:33;9.43;;;2.20;;
17253;SDS011;32542;52.832;13.816;2023-09-30T12:43:36;8.55;;;2.13;;
17253;SDS011;32542;52.832;13.816;2023-09-30T12:46:39;7.55;;;2.20;;
17253;SDS011;32542;52.832;13.816;2023-09-30T12:49:42;6.95;;;1.75;;
17253;SDS011;32542;52.832;13.816;2023-09-30T12:52:45;5.95;;;1.70;;
17253;SDS011;32542;52.832;13.816;2023-09-30T12:55:49;8.10;;;1.85;;
17253;SDS011;32542;52.832;13.816;2023-09-30T12:58:52;5.15;;;1.85;;
17253;SDS011;32542;52.832;13.816;2023-09-30T13:01:55;8.02;;;2.10;;
17253;SDS011;32542;52.832;13.816;2023-09-30T13:04:58;7.00;;;1.65;;
17253;SDS011;32542;52.832;13.816;2023-09-30T13:08:01;13.70;;;2.35;;
17253;SDS011;32542;52.832;13.816;2023-09-30T13:11:05;9.55;;;2.17;;
17253;SDS011;32542;52.832;13.816;2023-09-30T13:14:09;5.63;;;1.50;;
17253;SDS011;32542;52.832;13.816;2023-09-30T13:17:12;6.85;;;1.30;;
17253;SDS011;32542;52.832;13.816;2023-09-30T13:20:16;7.93;;;2.13;;
17253;SDS011;32542;52.832;13.816;2023-09-30T13:23:19;6.07;;;1.60;;
17253;SDS011;32542;52.832;13.816;2023-09-30T13:26:23;5.57;;;1.83;;
17253;SDS011;32542;52.832;13.816;2023-09-30T13:29:26;8.15;;;1.75;;
17253;SDS011;32542;52.832;13.816;2023-09-30T13:32:29;6.65;;;1.77;;
17253;SDS011;32542;52.832;13.816;2023-09-30T13:35:34;7.32;;;1.65;;
17253;SDS011;32542;52.832;13.816;2023-09-30T13:38:37;5.45;;;1.80;;
17253;SDS011;32542;52.832;13.816;2023-09-30T13:41:41;8.02;;;1.90;;
17253;SDS011;32542;52.832;13.816;2023-09-30T13:44:44;5.22;;;1.65;;
17253;SDS011;32542;52.832;13.816;2023-09-30T13:47:47;6.22;;;1.90;;
17253;SDS011;32542;52.832;13.816;2023-09-30T13:50:50;8.75;;;1.80;;
17253;SDS011;32542;52.832;13.816;2023-09-30T13:53:53;7.40;;;1.85;;
17253;SDS011;32542;52.832;13.816;2023-09-30T13:56:57;10.73;;;1.90;;
17253;SDS011;32542;52.832;13.816;2023-09-30T14:00:01;7.20;;;1.52;;
17253;SDS011;32542;52.832;13.816;2023-09-30T14:03:05;4.97;;;1.50;;
17253;SDS011;32542;52.832;13.816;2023-09-30T14:06:11;6.57;;;1.52;;
17253;SDS011;32542;52.832;13.816;2023-09-30T14:09:15;3.75;;;1.30;;
17253;SDS011;32542;52.832;13.816;2023-09-30T14:12:37;6.55;;;1.70;;
17253;SDS011;32542;52.832;13.816;2023-09-30T14:15:40;5.88;;;1.52;;
17253;SDS011;32542;52.832;13.816;2023-09-30T14:18:43;8.23;;;1.60;;
17253;SDS011;32542;52.832;13.816;2023-09-30T14:21:46;7.38;;;1.67;;
17253;SDS011;32542;52.832;13.816;2023-09-30T14:24:50;8.88;;;1.40;;
17253;SDS011;32542;52.832;13.816;2023-09-30T14:27:54;8.77;;;1.92;;
17253;SDS011;32542;52.832;13.816;2023-09-30T14:30:58;4.60;;;1.42;;
17253;SDS011;32542;52.832;13.816;2023-09-30T14:34:01;7.07;;;1.50;;
17253;SDS011;32542;52.832;13.816;2023-09-30T14:37:03;5.88;;;1.73;;
17253;SDS011;32542;52.832;13.816;2023-09-30T14:40:07;4.25;;;1.40;;
17253;SDS011;32542;52.832;13.816;2023-09-30T14:43:13;8.13;;;2.10;;
17253;SDS011;32542;52.832;13.816;2023-09-30T14:46:16;4.18;;;1.25;;
17253;SDS011;32542;52.832;13.816;2023-09-30T14:49:19;4.78;;;1.23;;
17253;SDS011;32542;52.832;13.816;2023-09-30T14:52:22;4.97;;;1.50;;
17253;SDS011;32542;52.832;13.816;2023-09-30T14:55:25;8.52;;;1.60;;
17253;SDS011;32542;52.832;13.816;2023-09-30T14:58:29;4.75;;;1.50;;
17253;SDS011;32542;52.832;13.816;2023-09-30T15:01:32;8.20;;;1.90;;
17253;SDS011;32542;52.832;13.816;2023-09-30T15:04:35;7.75;;;1.90;;
17253;SDS011;32542;52.832;13.816;2023-09-30T15:07:38;6.50;;;1.88;;
17253;SDS011;32542;52.832;13.816;2023-09-30T15:10:41;6.47;;;1.67;;
17253;SDS011;32542;52.832;13.816;2023-09-30T15:13:46;10.50;;;2.03;;
17253;SDS011;32542;52.832;13.816;2023-09-30T15:16:49;5.70;;;1.75;;
17253;SDS011;32542;52.832;13.816;2023-09-30T15:19:52;5.75;;;1.30;;
17253;SDS011;32542;52.832;13.816;2023-09-30T15:22:55;6.78;;;1.60;;
17253;SDS011;32542;52.832;13.816;2023-09-30T15:25:58;4.70;;;1.52;;
17253;SDS011;32542;52.832;13.816;2023-09-30T15:29:02;5.20;;;1.70;;
17253;SDS011;32542;52.832;13.816;2023-09-30T15:32:05;3.85;;;1.58;;
17253;SDS011;32542;52.832;13.816;2023-09-30T15:35:09;3.97;;;1.67;;
17253;SDS011;32542;52.832;13.816;2023-09-30T15:38:12;5.60;;;1.67;;
17253;SDS011;32542;52.832;13.816;2023-09-30T15:41:15;3.92;;;1.77;;
17253;SDS011;32542;52.832;13.816;2023-09-30T15:44:19;5.32;;;1.40;;
17253;SDS011;32542;52.832;13.816;2023-09-30T15:47:22;4.32;;;1.60;;
17253;SDS011;32542;52.832;13.816;2023-09-30T15:50:25;6.10;;;1.42;;
17253;SDS011;32542;52.832;13.816;2023-09-30T15:53:28;11.02;;;2.08;;
17253;SDS011;32542;52.832;13.816;2023-09-30T15:56:35;5.28;;;1.30;;
17253;SDS011;32542;52.832;13.816;2023-09-30T15:59:57;4.13;;;1.50;;
17253;SDS011;32542;52.832;13.816;2023-09-30T16:03:01;4.63;;;1.65;;
17253;SDS011;32542;52.832;13.816;2023-09-30T16:06:04;5.82;;;1.63;;
17253;SDS011;32542;52.832;13.816;2023-09-30T16:09:08;5.57;;;1.58;;
17253;SDS011;32542;52.832;13.816;2023-09-30T16:12:11;6.65;;;1.50;;
17253;SDS011;32542;52.832;13.816;2023-09-30T16:15:16;4.88;;;1.30;;
17253;SDS011;32542;52.832;13.816;2023-09-30T16:18:19;4.38;;;1.60;;
17253;SDS011;32542;52.832;13.816;2023-09-30T16:21:22;4.57;;;1.58;;
17253;SDS011;32542;52.832;13.816;2023-09-30T16:24:29;5.63;;;1.90;;
17253;SDS011;32542;52.832;13.816;2023-09-30T16:27:32;6.85;;;1.80;;
17253;SDS011;32542;52.832;13.816;2023-09-30T16:30:37;9.85;;;1.90;;
17253;SDS011;32542;52.832;13.816;2023-09-30T16:33:40;3.83;;;1.63;;
17253;SDS011;32542;52.832;13.816;2023-09-30T16:36:43;4.65;;;1.95;;
17253;SDS011;32542;52.832;13.816;2023-09-30T16:39:46;6.85;;;1.63;;
17253;SDS011;32542;52.832;13.816;2023-09-30T16:42:49;3.67;;;1.42;;
17253;SDS011;32542;52.832;13.816;2023-09-30T16:45:53;4.00;;;1.55;;
17253;SDS011;32542;52.832;13.816;2023-09-30T16:48:56;6.70;;;1.67;;
17253;SDS011;32542;52.832;13.816;2023-09-30T16:51:59;3.25;;;1.20;;
17253;SDS011;32542;52.832;13.816;2023-09-30T16:55:02;4.72;;;1.60;;
17253;SDS011;32542;52.832;13.816;2023-09-30T16:58:05;3.50;;;1.45;;
17253;SDS011;32542;52.832;13.816;2023-09-30T17:01:10;6.20;;;1.50;;
17253;SDS011;32542;52.832;13.816;2023-09-30T17:04:14;4.78;;;1.38;;
17253;SDS011;32542;52.832;13.816;2023-09-30T17:07:17;3.65;;;1.35;;
17253;SDS011;32542;52.832;13.816;2023-09-30T17:10:20;4.78;;;1.50;;
17253;SDS011;32542;52.832;13.816;2023-09-30T17:13:23;2.97;;;1.30;;
17253;SDS011;32542;52.832;13.816;2023-09-30T17:16:27;5.40;;;1.70;;
17253;SDS011;32542;52.832;13.816;2023-09-30T17:19:30;3.58;;;1.30;;
17253;SDS011;32542;52.832;13.816;2023-09-30T17:22:34;4.40;;;1.52;;
17253;SDS011;32542;52.832;13.816;2023-09-30T17:25:36;3.45;;;1.42;;
17253;SDS011;32542;52.832;13.816;2023-09-30T17:28:39;4.03;;;1.58;;
17253;SDS011;32542;52.832;13.816;2023-09-30T17:31:43;4.28;;;1.52;;
17253;SDS011;32542;52.832;13.816;2023-09-30T17:34:46;8.48;;;1.95;;
17253;SDS011;32542;52.832;13.816;2023-09-30T17:37:49;5.35;;;1.67;;
17253;SDS011;32542;52.832;13.816;2023-09-30T17:40:52;5.65;;;1.83;;
17253;SDS011;32542;52.832;13.816;2023-09-30T17:43:55;4.22;;;1.70;;
17253;SDS011;32542;52.832;13.816;2023-09-30T17:47:00;6.00;;;1.92;;
17253;SDS011;32542;52.832;13.816;2023-09-30T17:50:03;4.60;;;2.08;;
17253;SDS011;32542;52.832;13.816;2023-09-30T17:53:07;3.35;;;1.40;;
17253;SDS011;32542;52.832;13.816;2023-09-30T17:56:12;6.13;;;2.20;;
17253;SDS011;32542;52.832;13.816;2023-09-30T17:59:15;3.65;;;1.85;;
17253;SDS011;32542;52.832;13.816;2023-09-30T18:02:20;3.63;;;1.77;;
17253;SDS011;32542;52.832;13.816;2023-09-30T18:05:22;6.22;;;1.77;;
17253;SDS011;32542;52.832;13.816;2023-09-30T18:08:25;4.80;;;1.85;;
17253;SDS011;32542;52.832;13.816;2023-09-30T18:11:28;3.30;;;1.70;;
17253;SDS011;32542;52.832;13.816;2023-09-30T18:14:31;4.75;;;2.08;;
17253;SDS011;32542;52.832;13.816;2023-09-30T18:17:35;5.20;;;2.00;;